createdAt,value
2022-12-19T00:03:22.034Z,70.61
2022-12-19T00:08:19.992Z,71.14
2022-12-19T00:13:18.089Z,71.16
2022-12-19T00:18:16.074Z,71.16
2022-12-19T00:23:15.327Z,73.66
2022-12-19T00:28:13.439Z,72.97
2022-12-19T00:33:11.503Z,71.82
2022-12-19T00:38:09.421Z,70.69
2022-12-19T00:43:08.636Z,69.97
2022-12-19T00:48:07.308Z,70.53
2022-12-19T00:53:07.293Z,70.09
2022-12-19T00:58:05.348Z,70.61
2022-12-19T01:03:05.689Z,68.53
2022-12-19T01:08:03.846Z,69.74
2022-12-19T01:13:02.000Z,69.73
2022-12-19T01:17:59.842Z,70.82
2022-12-19T01:23:00.213Z,70.03
2022-12-19T01:27:58.610Z,70.01
2022-12-19T01:32:57.448Z,69.67
2022-12-19T01:38:07.278Z,72.54
2022-12-19T01:43:07.124Z,72.43
2022-12-19T01:48:29.208Z,72.93
2022-12-19T01:53:30.104Z,72.69
2022-12-19T01:58:27.998Z,73.42
2022-12-19T02:03:28.032Z,74.26
2022-12-19T02:08:26.130Z,73.75
2022-12-19T02:13:25.680Z,74.32
2022-12-19T02:18:28.869Z,75.21
2022-12-19T02:23:43.411Z,73.62
2022-12-19T02:28:56.956Z,74.66
2022-12-19T02:33:57.830Z,75.32
2022-12-19T02:38:59.995Z,74.98
2022-12-19T02:43:59.726Z,73.17
2022-12-19T02:49:02.757Z,71.87
2022-12-19T02:54:01.900Z,71.47
2022-12-19T02:59:09.205Z,71.77
2022-12-19T03:04:15.957Z,71.56
2022-12-19T03:09:17.259Z,73.15
2022-12-19T03:14:17.610Z,71.04
2022-12-19T03:19:17.332Z,71.20
2022-12-19T03:24:16.118Z,72.07
2022-12-19T03:29:16.959Z,72.47
2022-12-19T03:34:18.445Z,74.29
2022-12-19T03:39:18.335Z,74.18
2022-12-19T03:44:17.133Z,73.23
2022-12-19T03:49:16.545Z,73.29
2022-12-19T03:54:17.529Z,73.16
2022-12-19T03:59:21.561Z,74.00
2022-12-19T04:04:22.693Z,73.02
2022-12-19T04:09:22.757Z,74.37
2022-12-19T04:14:25.064Z,75.45
2022-12-19T04:19:29.304Z,74.75
2022-12-19T04:24:29.236Z,74.67
2022-12-19T04:29:28.706Z,74.51
2022-12-19T04:34:27.920Z,73.89
2022-12-19T04:39:26.355Z,73.17
2022-12-19T04:44:24.261Z,73.80
2022-12-19T04:49:22.441Z,74.28
2022-12-19T04:54:22.413Z,74.08
2022-12-19T04:59:20.559Z,74.04
2022-12-19T05:04:18.476Z,75.60
2022-12-19T05:09:16.328Z,76.49
2022-12-19T05:14:16.053Z,77.04
2022-12-19T05:19:13.902Z,76.29
2022-12-19T05:24:13.025Z,76.55
2022-12-19T05:29:11.577Z,76.78
2022-12-19T05:34:10.832Z,77.07
2022-12-19T05:39:08.793Z,76.80
2022-12-19T05:44:06.677Z,75.88
2022-12-19T05:49:04.565Z,75.96
2022-12-19T05:54:05.221Z,76.46
2022-12-19T05:59:03.244Z,75.20
2022-12-19T06:04:01.098Z,76.17
2022-12-19T06:09:00.397Z,76.11
2022-12-19T06:13:59.614Z,75.74
2022-12-19T06:18:57.481Z,74.85
2022-12-19T06:23:56.036Z,75.85
2022-12-19T06:28:54.299Z,75.33
2022-12-19T06:33:53.561Z,74.84
2022-12-19T06:38:52.167Z,73.63
2022-12-19T06:43:53.423Z,72.92
2022-12-19T06:48:53.039Z,71.35
2022-12-19T06:53:51.266Z,71.71
2022-12-19T06:58:49.270Z,72.55
2022-12-19T07:03:47.779Z,72.31
2022-12-19T07:08:47.096Z,72.79
2022-12-19T07:13:44.961Z,71.87
2022-12-19T07:18:43.659Z,65.96
2022-12-19T07:23:42.870Z,63.32
2022-12-19T07:28:44.575Z,62.21
2022-12-19T07:33:45.576Z,59.32
2022-12-19T07:38:44.482Z,59.23
2022-12-19T07:43:43.736Z,57.12
2022-12-19T07:48:41.642Z,59.38
2022-12-19T07:53:39.424Z,62.39
2022-12-19T07:58:37.290Z,62.79
2022-12-19T08:03:36.653Z,62.46
2022-12-19T08:08:34.673Z,63.33
2022-12-19T08:13:37.319Z,64.36
2022-12-19T08:18:39.104Z,63.90
2022-12-19T08:23:36.995Z,63.25
2022-12-19T08:28:35.578Z,63.28
2022-12-19T08:33:33.452Z,63.24
2022-12-19T08:38:32.726Z,63.42
2022-12-19T08:43:31.254Z,63.42
2022-12-19T08:48:29.295Z,63.14
2022-12-19T08:53:28.559Z,62.91
2022-12-19T08:58:28.519Z,62.54
2022-12-19T09:03:26.716Z,62.72
2022-12-19T09:08:31.340Z,61.67
2022-12-19T09:13:31.032Z,60.96
2022-12-19T09:18:29.093Z,60.24
2022-12-19T09:23:28.375Z,59.56
2022-12-19T09:28:27.689Z,58.09
2022-12-19T09:33:27.850Z,57.76
2022-12-19T09:38:26.557Z,58.58
2022-12-19T09:43:29.649Z,58.45
2022-12-19T09:48:28.995Z,56.96
2022-12-19T09:53:29.298Z,58.00
2022-12-19T09:58:36.334Z,60.65
2022-12-19T10:03:40.202Z,57.33
2022-12-19T10:09:10.018Z,57.51
2022-12-19T10:14:04.820Z,58.89
2022-12-19T10:19:06.224Z,57.55
2022-12-19T10:24:16.106Z,58.41
2022-12-19T10:29:25.448Z,55.29
2022-12-19T10:34:25.412Z,55.73
2022-12-19T10:39:28.738Z,55.92
2022-12-19T10:44:28.845Z,55.71
2022-12-19T10:49:28.798Z,54.50
2022-12-19T10:54:33.353Z,56.55
2022-12-19T10:59:31.741Z,54.78
2022-12-19T11:04:33.044Z,57.77
2022-12-19T11:09:32.226Z,58.28
2022-12-19T11:19:16.924Z,58.23
2022-12-19T11:29:44.181Z,60.33
2022-12-19T11:29:54.651Z,61.39
2022-12-19T11:35:56.711Z,60.62
2022-12-19T11:40:57.878Z,59.19
2022-12-19T11:45:58.137Z,61.20
2022-12-19T11:51:01.000Z,58.40
2022-12-19T11:56:02.486Z,60.41
2022-12-19T12:01:06.296Z,62.09
2022-12-19T12:06:09.159Z,63.85
2022-12-19T12:16:33.653Z,62.96
2022-12-19T12:27:21.631Z,61.15
2022-12-19T12:31:21.386Z,58.32
2022-12-19T12:31:50.783Z,60.76
2022-12-19T12:35:34.263Z,63.54
2022-12-19T12:38:28.452Z,62.23
2022-12-19T12:43:37.513Z,57.23
2022-12-19T12:48:37.210Z,54.65
2022-12-19T12:53:38.392Z,53.85
2022-12-19T12:59:03.405Z,51.15
2022-12-19T13:04:04.173Z,53.68
2022-12-19T13:09:06.359Z,55.32
2022-12-19T13:14:05.057Z,57.30
2022-12-19T13:19:04.477Z,58.54
2022-12-19T13:24:18.023Z,59.75
2022-12-19T13:29:33.894Z,62.56
2022-12-19T13:34:37.281Z,63.50
2022-12-19T13:40:01.455Z,63.43
2022-12-19T13:45:02.908Z,64.58
2022-12-19T13:50:02.172Z,65.64
2022-12-19T13:55:00.479Z,65.50
2022-12-19T14:00:01.368Z,66.13
2022-12-19T14:05:08.269Z,66.60
2022-12-19T14:11:41.003Z,67.05
2022-12-19T14:15:29.479Z,66.37
2022-12-19T14:22:02.580Z,66.61
2022-12-19T14:28:17.242Z,67.13
2022-12-19T14:31:12.469Z,67.22
2022-12-19T14:36:17.472Z,68.55
2022-12-19T14:41:42.109Z,69.42
2022-12-19T14:54:08.628Z,69.38
2022-12-19T14:54:41.627Z,70.30
2022-12-19T14:57:25.339Z,69.40
2022-12-19T15:02:39.608Z,68.98
2022-12-19T15:07:42.617Z,69.76
2022-12-19T15:14:51.907Z,69.92
2022-12-19T15:18:26.823Z,72.00
2022-12-19T15:23:26.158Z,72.12
2022-12-19T15:28:26.693Z,72.30
2022-12-19T15:33:24.656Z,72.41
2022-12-19T15:38:22.492Z,73.31
2022-12-19T15:44:01.881Z,74.07
2022-12-19T15:48:43.913Z,74.52
2022-12-19T15:53:42.304Z,74.63
2022-12-19T15:58:41.667Z,74.98
2022-12-19T16:03:40.365Z,76.33
2022-12-19T16:08:38.637Z,76.14
2022-12-19T16:13:36.702Z,75.15
2022-12-19T16:18:36.556Z,75.35
2022-12-19T16:23:34.510Z,75.86
2022-12-19T16:28:35.113Z,76.13
2022-12-19T16:33:33.696Z,75.91
2022-12-19T16:38:33.554Z,76.11
2022-12-19T16:43:33.415Z,77.37
2022-12-19T16:48:31.696Z,76.68
2022-12-19T16:53:30.454Z,76.63
2022-12-19T16:58:30.931Z,76.61
2022-12-19T17:03:31.456Z,76.75
2022-12-19T17:08:29.847Z,76.11
2022-12-19T17:13:29.506Z,77.51
2022-12-19T17:18:29.889Z,76.59
2022-12-19T17:23:29.574Z,76.84
2022-12-19T17:28:29.580Z,77.43
2022-12-19T17:33:30.081Z,76.62
2022-12-19T17:38:28.342Z,77.06
2022-12-19T17:43:26.358Z,78.07
2022-12-19T17:48:28.677Z,77.30
2022-12-19T17:53:27.418Z,77.01
2022-12-19T17:58:25.568Z,78.90
2022-12-19T18:03:24.991Z,79.16
2022-12-19T18:08:28.772Z,78.81
2022-12-19T18:13:27.614Z,79.81
2022-12-19T18:18:28.164Z,79.25
2022-12-19T18:23:27.844Z,79.27
2022-12-19T18:28:25.830Z,78.63
2022-12-19T18:33:24.842Z,79.20
2022-12-19T18:38:24.011Z,79.55
2022-12-19T18:43:24.097Z,77.86
2022-12-19T18:48:25.361Z,76.85
2022-12-19T18:53:34.440Z,76.00
2022-12-19T18:58:35.398Z,75.55
2022-12-19T19:03:34.964Z,73.90
2022-12-19T19:08:34.331Z,73.60
2022-12-19T19:14:12.575Z,72.80
2022-12-19T19:19:13.274Z,73.46
2022-12-19T19:24:14.717Z,72.74
2022-12-19T19:29:15.115Z,72.54
2022-12-19T19:34:15.988Z,73.21
2022-12-19T19:39:15.863Z,73.05
2022-12-19T19:44:15.556Z,73.46
2022-12-19T19:49:13.762Z,73.67
2022-12-19T19:54:11.828Z,73.54
2022-12-19T19:59:09.882Z,71.80
2022-12-19T20:04:09.352Z,71.61
2022-12-19T20:09:08.007Z,71.47
2022-12-19T20:14:06.245Z,70.97
2022-12-19T20:19:04.533Z,70.40
2022-12-19T20:24:04.068Z,71.29
2022-12-19T20:29:02.365Z,72.05
2022-12-19T20:34:00.471Z,71.40
2022-12-19T20:38:59.591Z,72.80
2022-12-19T20:43:58.926Z,71.91
2022-12-19T20:48:58.169Z,72.57
2022-12-19T20:53:56.126Z,72.76
2022-12-19T20:58:54.101Z,73.31
2022-12-19T21:03:53.831Z,72.87
2022-12-19T21:08:52.142Z,73.71
2022-12-19T21:13:50.084Z,71.97
2022-12-19T21:18:49.387Z,72.34
2022-12-19T21:23:49.482Z,71.43
2022-12-19T21:28:47.476Z,72.27
2022-12-19T21:33:45.974Z,71.51
2022-12-19T21:38:43.913Z,70.88
2022-12-19T21:43:44.052Z,70.34
2022-12-19T21:48:43.164Z,69.94
2022-12-19T21:53:41.348Z,69.68
2022-12-19T21:58:39.209Z,69.83
2022-12-19T22:03:38.897Z,71.19
2022-12-19T22:08:37.366Z,71.99
2022-12-19T22:13:35.560Z,71.10
2022-12-19T22:18:35.645Z,70.77
2022-12-19T22:23:35.114Z,71.07
2022-12-19T22:28:33.970Z,71.50
2022-12-19T22:33:32.236Z,72.02
2022-12-19T22:38:30.473Z,71.40
2022-12-19T22:43:30.464Z,72.03
2022-12-19T22:48:28.923Z,71.97
2022-12-19T22:53:27.070Z,71.99
2022-12-19T22:58:25.058Z,72.14
2022-12-19T23:03:24.491Z,70.71
2022-12-19T23:08:22.584Z,70.70
2022-12-19T23:13:20.863Z,71.19
2022-12-19T23:18:19.141Z,71.46
2022-12-19T23:23:18.868Z,71.21
2022-12-19T23:28:16.891Z,71.66
2022-12-19T23:33:14.750Z,71.48
2022-12-19T23:38:12.700Z,70.63
2022-12-19T23:43:14.257Z,69.96
2022-12-19T23:48:12.345Z,70.74
2022-12-19T23:53:10.214Z,69.26
2022-12-19T23:58:14.590Z,71.16
